sensor_id;sensor_type;location;lat;lon;timestamp;P1;durP1;ratioP1;P2;durP2;ratioP2
20411;SDS011;10365;52.578;8.138;2023-05-27T00:01:30;16.63;;;5.13;;
20411;SDS011;10365;52.578;8.138;2023-05-27T00:03:55;18.92;;;4.32;;
20411;SDS011;10365;52.578;8.138;2023-05-27T00:06:20;14.30;;;4.20;;
20411;SDS011;10365;52.578;8.138;2023-05-27T00:08:46;14.38;;;4.30;;
20411;SDS011;10365;52.578;8.138;2023-05-27T00:11:11;15.75;;;5.25;;
20411;SDS011;10365;52.578;8.138;2023-05-27T00:13:36;13.73;;;4.55;;
20411;SDS011;10365;52.578;8.138;2023-05-27T00:16:02;20.35;;;4.43;;
20411;SDS011;10365;52.578;8.138;2023-05-27T00:18:27;17.05;;;4.10;;
20411;SDS011;10365;52.578;8.138;2023-05-27T00:20:52;22.23;;;4.93;;
20411;SDS011;10365;52.578;8.138;2023-05-27T00:23:18;13.10;;;4.75;;
20411;SDS011;10365;52.578;8.138;2023-05-27T00:25:43;12.18;;;3.97;;
20411;SDS011;10365;52.578;8.138;2023-05-27T00:28:09;16.27;;;4.05;;
20411;SDS011;10365;52.578;8.138;2023-05-27T00:30:35;13.07;;;4.00;;
20411;SDS011;10365;52.578;8.138;2023-05-27T00:33:01;21.20;;;5.15;;
20411;SDS011;10365;52.578;8.138;2023-05-27T00:35:28;15.55;;;4.28;;
20411;SDS011;10365;52.578;8.138;2023-05-27T00:37:53;17.17;;;4.43;;
20411;SDS011;10365;52.578;8.138;2023-05-27T00:40:19;14.50;;;4.20;;
20411;SDS011;10365;52.578;8.138;2023-05-27T00:42:46;14.73;;;4.63;;
20411;SDS011;10365;52.578;8.138;2023-05-27T00:45:11;14.80;;;4.13;;
20411;SDS011;10365;52.578;8.138;2023-05-27T00:47:37;17.95;;;5.20;;
20411;SDS011;10365;52.578;8.138;2023-05-27T00:50:03;18.98;;;4.30;;
20411;SDS011;10365;52.578;8.138;2023-05-27T00:52:29;21.48;;;5.20;;
20411;SDS011;10365;52.578;8.138;2023-05-27T00:54:54;11.43;;;3.92;;
20411;SDS011;10365;52.578;8.138;2023-05-27T00:57:21;14.65;;;4.43;;
20411;SDS011;10365;52.578;8.138;2023-05-27T00:59:46;16.40;;;4.60;;
20411;SDS011;10365;52.578;8.138;2023-05-27T01:02:12;17.05;;;6.63;;
20411;SDS011;10365;52.578;8.138;2023-05-27T01:04:37;12.95;;;4.65;;
20411;SDS011;10365;52.578;8.138;2023-05-27T01:09:34;14.95;;;4.30;;
20411;SDS011;10365;52.578;8.138;2023-05-27T01:14:29;14.00;;;4.95;;
20411;SDS011;10365;52.578;8.138;2023-05-27T01:16:56;13.35;;;4.90;;
20411;SDS011;10365;52.578;8.138;2023-05-27T01:19:33;15.05;;;4.93;;
20411;SDS011;10365;52.578;8.138;2023-05-27T01:22:00;12.85;;;5.30;;
20411;SDS011;10365;52.578;8.138;2023-05-27T01:24:27;15.48;;;5.78;;
20411;SDS011;10365;52.578;8.138;2023-05-27T01:26:52;17.48;;;5.13;;
20411;SDS011;10365;52.578;8.138;2023-05-27T01:29:19;25.88;;;5.90;;
20411;SDS011;10365;52.578;8.138;2023-05-27T01:34:10;18.42;;;5.45;;
20411;SDS011;10365;52.578;8.138;2023-05-27T01:36:40;19.70;;;5.80;;
20411;SDS011;10365;52.578;8.138;2023-05-27T01:39:08;17.52;;;5.35;;
20411;SDS011;10365;52.578;8.138;2023-05-27T01:41:37;17.77;;;5.47;;
20411;SDS011;10365;52.578;8.138;2023-05-27T01:44:03;22.90;;;6.32;;
20411;SDS011;10365;52.578;8.138;2023-05-27T01:46:29;18.30;;;5.68;;
20411;SDS011;10365;52.578;8.138;2023-05-27T01:48:54;15.45;;;5.43;;
20411;SDS011;10365;52.578;8.138;2023-05-27T01:51:20;20.38;;;5.63;;
20411;SDS011;10365;52.578;8.138;2023-05-27T01:53:45;19.92;;;5.40;;
20411;SDS011;10365;52.578;8.138;2023-05-27T01:56:11;12.02;;;4.93;;
20411;SDS011;10365;52.578;8.138;2023-05-27T01:58:36;19.33;;;5.75;;
20411;SDS011;10365;52.578;8.138;2023-05-27T02:01:02;21.25;;;6.63;;
20411;SDS011;10365;52.578;8.138;2023-05-27T02:03:27;17.02;;;6.55;;
20411;SDS011;10365;52.578;8.138;2023-05-27T02:05:52;16.60;;;5.95;;
20411;SDS011;10365;52.578;8.138;2023-05-27T02:08:18;25.05;;;6.63;;
20411;SDS011;10365;52.578;8.138;2023-05-27T02:10:43;16.92;;;6.90;;
20411;SDS011;10365;52.578;8.138;2023-05-27T02:13:09;17.55;;;6.45;;
20411;SDS011;10365;52.578;8.138;2023-05-27T02:15:34;17.33;;;7.03;;
20411;SDS011;10365;52.578;8.138;2023-05-27T02:18:02;17.50;;;5.72;;
20411;SDS011;10365;52.578;8.138;2023-05-27T02:20:27;22.13;;;6.63;;
20411;SDS011;10365;52.578;8.138;2023-05-27T02:22:54;17.92;;;6.80;;
20411;SDS011;10365;52.578;8.138;2023-05-27T02:25:19;15.25;;;6.03;;
20411;SDS011;10365;52.578;8.138;2023-05-27T02:27:45;19.63;;;5.88;;
20411;SDS011;10365;52.578;8.138;2023-05-27T02:30:14;18.70;;;5.55;;
20411;SDS011;10365;52.578;8.138;2023-05-27T02:32:40;26.17;;;6.03;;
20411;SDS011;10365;52.578;8.138;2023-05-27T02:35:05;15.27;;;4.82;;
20411;SDS011;10365;52.578;8.138;2023-05-27T02:37:31;19.75;;;5.85;;
20411;SDS011;10365;52.578;8.138;2023-05-27T02:39:57;21.92;;;5.53;;
20411;SDS011;10365;52.578;8.138;2023-05-27T02:42:23;19.65;;;5.57;;
20411;SDS011;10365;52.578;8.138;2023-05-27T02:44:49;21.73;;;5.43;;
20411;SDS011;10365;52.578;8.138;2023-05-27T02:47:14;26.88;;;6.70;;
20411;SDS011;10365;52.578;8.138;2023-05-27T02:49:40;26.70;;;5.80;;
20411;SDS011;10365;52.578;8.138;2023-05-27T02:52:05;19.75;;;6.05;;
20411;SDS011;10365;52.578;8.138;2023-05-27T02:54:31;12.88;;;5.72;;
20411;SDS011;10365;52.578;8.138;2023-05-27T02:56:56;23.17;;;6.40;;
20411;SDS011;10365;52.578;8.138;2023-05-27T02:59:21;32.75;;;6.18;;
20411;SDS011;10365;52.578;8.138;2023-05-27T03:01:47;23.33;;;6.32;;
20411;SDS011;10365;52.578;8.138;2023-05-27T03:04:12;28.10;;;5.53;;
20411;SDS011;10365;52.578;8.138;2023-05-27T03:06:37;18.85;;;6.38;;
20411;SDS011;10365;52.578;8.138;2023-05-27T03:09:03;18.02;;;5.88;;
20411;SDS011;10365;52.578;8.138;2023-05-27T03:11:29;20.90;;;6.97;;
20411;SDS011;10365;52.578;8.138;2023-05-27T03:13:56;21.98;;;5.82;;
20411;SDS011;10365;52.578;8.138;2023-05-27T03:16:21;22.52;;;6.28;;
20411;SDS011;10365;52.578;8.138;2023-05-27T03:18:48;17.13;;;6.07;;
20411;SDS011;10365;52.578;8.138;2023-05-27T03:21:13;17.05;;;5.95;;
20411;SDS011;10365;52.578;8.138;2023-05-27T03:23:40;14.77;;;5.95;;
20411;SDS011;10365;52.578;8.138;2023-05-27T03:26:05;28.08;;;6.95;;
20411;SDS011;10365;52.578;8.138;2023-05-27T03:28:31;18.33;;;6.55;;
20411;SDS011;10365;52.578;8.138;2023-05-27T03:30:57;19.83;;;6.55;;
20411;SDS011;10365;52.578;8.138;2023-05-27T03:33:37;16.42;;;6.07;;
20411;SDS011;10365;52.578;8.138;2023-05-27T03:36:03;16.27;;;6.32;;
20411;SDS011;10365;52.578;8.138;2023-05-27T03:38:28;24.58;;;7.72;;
20411;SDS011;10365;52.578;8.138;2023-05-27T03:40:54;20.67;;;6.82;;
20411;SDS011;10365;52.578;8.138;2023-05-27T03:43:20;17.17;;;6.43;;
20411;SDS011;10365;52.578;8.138;2023-05-27T03:45:46;22.35;;;6.25;;
20411;SDS011;10365;52.578;8.138;2023-05-27T03:48:12;21.40;;;6.85;;
20411;SDS011;10365;52.578;8.138;2023-05-27T03:50:37;17.15;;;6.07;;
20411;SDS011;10365;52.578;8.138;2023-05-27T03:53:03;15.45;;;5.70;;
20411;SDS011;10365;52.578;8.138;2023-05-27T03:55:28;22.67;;;6.95;;
20411;SDS011;10365;52.578;8.138;2023-05-27T03:57:54;19.58;;;6.60;;
20411;SDS011;10365;52.578;8.138;2023-05-27T04:00:19;17.13;;;6.30;;
20411;SDS011;10365;52.578;8.138;2023-05-27T04:02:48;13.60;;;6.40;;
20411;SDS011;10365;52.578;8.138;2023-05-27T04:05:13;19.38;;;7.93;;
20411;SDS011;10365;52.578;8.138;2023-05-27T04:07:41;18.05;;;7.03;;
20411;SDS011;10365;52.578;8.138;2023-05-27T04:10:08;19.40;;;7.20;;
20411;SDS011;10365;52.578;8.138;2023-05-27T04:12:34;24.00;;;7.07;;
20411;SDS011;10365;52.578;8.138;2023-05-27T04:14:59;15.35;;;7.35;;
20411;SDS011;10365;52.578;8.138;2023-05-27T04:17:25;24.58;;;7.78;;
20411;SDS011;10365;52.578;8.138;2023-05-27T04:19:51;19.42;;;6.53;;
20411;SDS011;10365;52.578;8.138;2023-05-27T04:22:17;23.02;;;7.28;;
20411;SDS011;10365;52.578;8.138;2023-05-27T04:24:44;28.45;;;7.72;;
20411;SDS011;10365;52.578;8.138;2023-05-27T04:27:11;27.15;;;6.90;;
20411;SDS011;10365;52.578;8.138;2023-05-27T04:29:38;16.48;;;7.88;;
20411;SDS011;10365;52.578;8.138;2023-05-27T04:32:04;18.98;;;7.65;;
20411;SDS011;10365;52.578;8.138;2023-05-27T04:34:31;18.40;;;7.85;;
20411;SDS011;10365;52.578;8.138;2023-05-27T04:36:56;18.23;;;6.95;;
20411;SDS011;10365;52.578;8.138;2023-05-27T04:39:24;24.45;;;7.00;;
20411;SDS011;10365;52.578;8.138;2023-05-27T04:41:50;19.17;;;6.88;;
20411;SDS011;10365;52.578;8.138;2023-05-27T04:44:23;22.33;;;8.32;;
20411;SDS011;10365;52.578;8.138;2023-05-27T04:46:49;25.20;;;7.68;;
20411;SDS011;10365;52.578;8.138;2023-05-27T04:49:15;19.13;;;7.60;;
20411;SDS011;10365;52.578;8.138;2023-05-27T04:51:41;24.20;;;7.75;;
20411;SDS011;10365;52.578;8.138;2023-05-27T04:54:10;22.33;;;7.53;;
20411;SDS011;10365;52.578;8.138;2023-05-27T04:56:37;25.73;;;7.45;;
20411;SDS011;10365;52.578;8.138;2023-05-27T04:59:03;28.70;;;7.13;;
20411;SDS011;10365;52.578;8.138;2023-05-27T05:01:31;22.10;;;6.07;;
20411;SDS011;10365;52.578;8.138;2023-05-27T05:04:20;18.25;;;6.18;;
20411;SDS011;10365;52.578;8.138;2023-05-27T05:06:50;19.10;;;5.93;;
20411;SDS011;10365;52.578;8.138;2023-05-27T05:09:16;14.18;;;5.70;;
20411;SDS011;10365;52.578;8.138;2023-05-27T05:11:42;11.38;;;5.13;;
20411;SDS011;10365;52.578;8.138;2023-05-27T05:14:08;22.25;;;5.55;;
20411;SDS011;10365;52.578;8.138;2023-05-27T05:16:33;16.75;;;6.30;;
20411;SDS011;10365;52.578;8.138;2023-05-27T05:18:59;21.75;;;5.15;;
20411;SDS011;10365;52.578;8.138;2023-05-27T05:21:29;14.65;;;5.28;;
20411;SDS011;10365;52.578;8.138;2023-05-27T05:23:55;15.68;;;4.90;;
20411;SDS011;10365;52.578;8.138;2023-05-27T05:26:21;16.27;;;4.88;;
20411;SDS011;10365;52.578;8.138;2023-05-27T05:28:46;23.95;;;7.22;;
20411;SDS011;10365;52.578;8.138;2023-05-27T05:31:12;19.45;;;5.72;;
20411;SDS011;10365;52.578;8.138;2023-05-27T05:33:37;18.60;;;6.82;;
20411;SDS011;10365;52.578;8.138;2023-05-27T05:36:05;20.73;;;6.13;;
20411;SDS011;10365;52.578;8.138;2023-05-27T05:38:47;17.40;;;5.40;;
20411;SDS011;10365;52.578;8.138;2023-05-27T05:41:13;17.92;;;5.32;;
20411;SDS011;10365;52.578;8.138;2023-05-27T05:43:39;14.85;;;5.22;;
20411;SDS011;10365;52.578;8.138;2023-05-27T05:46:04;17.42;;;4.88;;
20411;SDS011;10365;52.578;8.138;2023-05-27T05:48:30;13.90;;;4.90;;
20411;SDS011;10365;52.578;8.138;2023-05-27T05:50:55;14.52;;;5.07;;
20411;SDS011;10365;52.578;8.138;2023-05-27T05:53:21;20.13;;;4.95;;
20411;SDS011;10365;52.578;8.138;2023-05-27T05:55:46;15.15;;;5.05;;
20411;SDS011;10365;52.578;8.138;2023-05-27T05:58:13;13.10;;;4.82;;
20411;SDS011;10365;52.578;8.138;2023-05-27T06:00:40;18.50;;;4.30;;
20411;SDS011;10365;52.578;8.138;2023-05-27T06:03:25;14.30;;;3.88;;
20411;SDS011;10365;52.578;8.138;2023-05-27T06:05:54;13.38;;;4.32;;
20411;SDS011;10365;52.578;8.138;2023-05-27T06:08:20;12.73;;;4.75;;
20411;SDS011;10365;52.578;8.138;2023-05-27T06:10:55;12.77;;;4.10;;
20411;SDS011;10365;52.578;8.138;2023-05-27T06:13:20;14.07;;;4.38;;
20411;SDS011;10365;52.578;8.138;2023-05-27T06:15:48;18.33;;;4.60;;
20411;SDS011;10365;52.578;8.138;2023-05-27T06:18:13;15.63;;;4.53;;
20411;SDS011;10365;52.578;8.138;2023-05-27T06:20:39;14.98;;;4.55;;
20411;SDS011;10365;52.578;8.138;2023-05-27T06:23:05;18.50;;;5.03;;
20411;SDS011;10365;52.578;8.138;2023-05-27T06:25:51;18.10;;;4.88;;
20411;SDS011;10365;52.578;8.138;2023-05-27T06:28:17;22.23;;;4.75;;
20411;SDS011;10365;52.578;8.138;2023-05-27T06:30:43;16.95;;;5.40;;
20411;SDS011;10365;52.578;8.138;2023-05-27T06:33:10;17.45;;;4.65;;
20411;SDS011;10365;52.578;8.138;2023-05-27T06:35:35;18.20;;;4.85;;
20411;SDS011;10365;52.578;8.138;2023-05-27T06:38:01;18.38;;;4.75;;
20411;SDS011;10365;52.578;8.138;2023-05-27T06:40:27;19.30;;;4.40;;
20411;SDS011;10365;52.578;8.138;2023-05-27T06:42:53;12.43;;;3.70;;
20411;SDS011;10365;52.578;8.138;2023-05-27T06:45:32;19.63;;;4.53;;
20411;SDS011;10365;52.578;8.138;2023-05-27T06:48:17;23.27;;;4.95;;
20411;SDS011;10365;52.578;8.138;2023-05-27T06:50:43;15.88;;;3.53;;
20411;SDS011;10365;52.578;8.138;2023-05-27T06:53:08;14.98;;;3.97;;
20411;SDS011;10365;52.578;8.138;2023-05-27T06:55:50;15.98;;;4.07;;
20411;SDS011;10365;52.578;8.138;2023-05-27T06:58:35;17.00;;;3.92;;
20411;SDS011;10365;52.578;8.138;2023-05-27T07:01:06;11.30;;;3.72;;
20411;SDS011;10365;52.578;8.138;2023-05-27T07:03:44;15.38;;;4.00;;
20411;SDS011;10365;52.578;8.138;2023-05-27T07:06:14;16.63;;;4.75;;
20411;SDS011;10365;52.578;8.138;2023-05-27T07:08:46;16.35;;;4.03;;
20411;SDS011;10365;52.578;8.138;2023-05-27T07:11:21;13.02;;;3.92;;
20411;SDS011;10365;52.578;8.138;2023-05-27T07:13:47;24.15;;;5.00;;
20411;SDS011;10365;52.578;8.138;2023-05-27T07:16:15;12.65;;;3.60;;
20411;SDS011;10365;52.578;8.138;2023-05-27T07:18:40;19.58;;;4.53;;
20411;SDS011;10365;52.578;8.138;2023-05-27T07:21:06;16.33;;;4.70;;
20411;SDS011;10365;52.578;8.138;2023-05-27T07:23:32;17.15;;;4.70;;
20411;SDS011;10365;52.578;8.138;2023-05-27T07:26:08;16.48;;;4.35;;
20411;SDS011;10365;52.578;8.138;2023-05-27T07:28:33;12.32;;;3.90;;
20411;SDS011;10365;52.578;8.138;2023-05-27T07:31:10;21.65;;;5.00;;
20411;SDS011;10365;52.578;8.138;2023-05-27T07:33:42;14.85;;;4.65;;
20411;SDS011;10365;52.578;8.138;2023-05-27T07:36:09;20.70;;;4.35;;
20411;SDS011;10365;52.578;8.138;2023-05-27T07:38:35;16.30;;;4.50;;
20411;SDS011;10365;52.578;8.138;2023-05-27T07:41:00;17.45;;;5.45;;
20411;SDS011;10365;52.578;8.138;2023-05-27T07:43:26;18.38;;;5.05;;
20411;SDS011;10365;52.578;8.138;2023-05-27T07:45:52;16.88;;;4.68;;
20411;SDS011;10365;52.578;8.138;2023-05-27T07:48:17;14.70;;;4.70;;
20411;SDS011;10365;52.578;8.138;2023-05-27T07:50:42;15.32;;;5.10;;
20411;SDS011;10365;52.578;8.138;2023-05-27T07:53:16;17.52;;;5.63;;
20411;SDS011;10365;52.578;8.138;2023-05-27T07:55:41;14.38;;;4.75;;
20411;SDS011;10365;52.578;8.138;2023-05-27T07:58:07;13.82;;;4.68;;
20411;SDS011;10365;52.578;8.138;2023-05-27T08:00:45;17.05;;;4.32;;
20411;SDS011;10365;52.578;8.138;2023-05-27T08:03:11;14.88;;;4.60;;
20411;SDS011;10365;52.578;8.138;2023-05-27T08:06:03;13.02;;;4.30;;
20411;SDS011;10365;52.578;8.138;2023-05-27T08:08:42;18.67;;;5.18;;
20411;SDS011;10365;52.578;8.138;2023-05-27T08:11:32;15.43;;;5.47;;
20411;SDS011;10365;52.578;8.138;2023-05-27T08:13:57;15.45;;;4.85;;
20411;SDS011;10365;52.578;8.138;2023-05-27T08:16:41;17.13;;;5.70;;
20411;SDS011;10365;52.578;8.138;2023-05-27T08:19:39;15.95;;;4.75;;
20411;SDS011;10365;52.578;8.138;2023-05-27T08:22:38;15.55;;;5.28;;
20411;SDS011;10365;52.578;8.138;2023-05-27T08:25:26;15.77;;;4.72;;
20411;SDS011;10365;52.578;8.138;2023-05-27T08:28:07;13.27;;;4.50;;
20411;SDS011;10365;52.578;8.138;2023-05-27T08:30:45;18.42;;;5.28;;
20411;SDS011;10365;52.578;8.138;2023-05-27T08:33:18;15.63;;;4.20;;
20411;SDS011;10365;52.578;8.138;2023-05-27T08:35:43;14.43;;;4.85;;
20411;SDS011;10365;52.578;8.138;2023-05-27T08:38:09;16.77;;;4.90;;
20411;SDS011;10365;52.578;8.138;2023-05-27T08:40:38;15.75;;;4.43;;
20411;SDS011;10365;52.578;8.138;2023-05-27T08:43:05;12.50;;;4.20;;
20411;SDS011;10365;52.578;8.138;2023-05-27T08:45:33;14.52;;;3.97;;
20411;SDS011;10365;52.578;8.138;2023-05-27T08:47:59;15.02;;;4.28;;
20411;SDS011;10365;52.578;8.138;2023-05-27T08:50:32;12.70;;;3.75;;
20411;SDS011;10365;52.578;8.138;2023-05-27T08:52:57;12.18;;;4.25;;
20411;SDS011;10365;52.578;8.138;2023-05-27T08:55:25;13.93;;;4.38;;
20411;SDS011;10365;52.578;8.138;2023-05-27T08:57:56;11.15;;;3.13;;
20411;SDS011;10365;52.578;8.138;2023-05-27T09:00:24;20.35;;;4.45;;
20411;SDS011;10365;52.578;8.138;2023-05-27T09:02:52;14.13;;;3.47;;
20411;SDS011;10365;52.578;8.138;2023-05-27T09:05:22;14.18;;;4.32;;
20411;SDS011;10365;52.578;8.138;2023-05-27T09:07:48;13.27;;;3.70;;
20411;SDS011;10365;52.578;8.138;2023-05-27T09:10:13;11.90;;;3.72;;
20411;SDS011;10365;52.578;8.138;2023-05-27T09:12:41;12.02;;;3.72;;
20411;SDS011;10365;52.578;8.138;2023-05-27T09:15:07;17.25;;;3.70;;
20411;SDS011;10365;52.578;8.138;2023-05-27T09:17:32;16.05;;;4.15;;
20411;SDS011;10365;52.578;8.138;2023-05-27T09:19:58;13.95;;;3.50;;
20411;SDS011;10365;52.578;8.138;2023-05-27T09:22:24;18.48;;;4.50;;
20411;SDS011;10365;52.578;8.138;2023-05-27T09:24:53;9.00;;;3.60;;
20411;SDS011;10365;52.578;8.138;2023-05-27T09:27:19;11.68;;;3.72;;
20411;SDS011;10365;52.578;8.138;2023-05-27T09:29:44;13.95;;;4.40;;
20411;SDS011;10365;52.578;8.138;2023-05-27T09:32:10;13.10;;;3.72;;
20411;SDS011;10365;52.578;8.138;2023-05-27T09:34:38;12.55;;;3.53;;
20411;SDS011;10365;52.578;8.138;2023-05-27T09:37:03;11.07;;;3.22;;
20411;SDS011;10365;52.578;8.138;2023-05-27T09:39:29;10.75;;;3.78;;
20411;SDS011;10365;52.578;8.138;2023-05-27T09:41:55;17.48;;;4.40;;
20411;SDS011;10365;52.578;8.138;2023-05-27T09:44:22;13.13;;;4.22;;
20411;SDS011;10365;52.578;8.138;2023-05-27T09:46:49;16.73;;;4.10;;
20411;SDS011;10365;52.578;8.138;2023-05-27T09:49:17;14.90;;;4.60;;
20411;SDS011;10365;52.578;8.138;2023-05-27T09:51:43;14.70;;;4.57;;
20411;SDS011;10365;52.578;8.138;2023-05-27T09:54:10;16.27;;;4.32;;
20411;SDS011;10365;52.578;8.138;2023-05-27T09:56:41;10.95;;;3.72;;
20411;SDS011;10365;52.578;8.138;2023-05-27T09:59:07;15.70;;;4.38;;
20411;SDS011;10365;52.578;8.138;2023-05-27T10:01:33;13.98;;;4.30;;
20411;SDS011;10365;52.578;8.138;2023-05-27T10:03:58;22.00;;;4.20;;
20411;SDS011;10365;52.578;8.138;2023-05-27T10:06:24;16.77;;;4.43;;
20411;SDS011;10365;52.578;8.138;2023-05-27T10:08:51;14.80;;;4.47;;
20411;SDS011;10365;52.578;8.138;2023-05-27T10:11:20;13.43;;;4.35;;
20411;SDS011;10365;52.578;8.138;2023-05-27T10:13:46;19.55;;;4.88;;
20411;SDS011;10365;52.578;8.138;2023-05-27T10:16:22;18.65;;;4.75;;
20411;SDS011;10365;52.578;8.138;2023-05-27T10:18:57;15.60;;;4.00;;
20411;SDS011;10365;52.578;8.138;2023-05-27T10:21:25;13.00;;;4.00;;
20411;SDS011;10365;52.578;8.138;2023-05-27T10:24:00;14.00;;;4.43;;
20411;SDS011;10365;52.578;8.138;2023-05-27T10:26:33;9.82;;;3.67;;
20411;SDS011;10365;52.578;8.138;2023-05-27T10:29:05;14.90;;;4.78;;
20411;SDS011;10365;52.578;8.138;2023-05-27T10:31:32;16.23;;;4.68;;
20411;SDS011;10365;52.578;8.138;2023-05-27T10:33:57;11.45;;;3.58;;
20411;SDS011;10365;52.578;8.138;2023-05-27T10:36:24;8.93;;;3.50;;
20411;SDS011;10365;52.578;8.138;2023-05-27T10:38:57;10.75;;;3.50;;
20411;SDS011;10365;52.578;8.138;2023-05-27T10:41:22;13.63;;;4.05;;
20411;SDS011;10365;52.578;8.138;2023-05-27T10:43:55;22.75;;;4.07;;
20411;SDS011;10365;52.578;8.138;2023-05-27T10:46:21;13.93;;;3.70;;
20411;SDS011;10365;52.578;8.138;2023-05-27T10:48:46;12.80;;;3.47;;
20411;SDS011;10365;52.578;8.138;2023-05-27T10:51:12;11.90;;;3.80;;
20411;SDS011;10365;52.578;8.138;2023-05-27T10:53:37;20.00;;;4.50;;
20411;SDS011;10365;52.578;8.138;2023-05-27T10:56:03;8.90;;;3.33;;
20411;SDS011;10365;52.578;8.138;2023-05-27T10:58:28;8.40;;;3.30;;
20411;SDS011;10365;52.578;8.138;2023-05-27T11:00:54;14.40;;;4.25;;
20411;SDS011;10365;52.578;8.138;2023-05-27T11:03:21;13.93;;;3.50;;
20411;SDS011;10365;52.578;8.138;2023-05-27T11:05:59;11.38;;;3.60;;
20411;SDS011;10365;52.578;8.138;2023-05-27T11:08:25;14.15;;;4.32;;
20411;SDS011;10365;52.578;8.138;2023-05-27T11:10:50;14.27;;;3.65;;
20411;SDS011;10365;52.578;8.138;2023-05-27T11:13:16;15.82;;;4.60;;
20411;SDS011;10365;52.578;8.138;2023-05-27T11:15:41;11.20;;;4.20;;
20411;SDS011;10365;52.578;8.138;2023-05-27T11:18:07;15.52;;;4.07;;
20411;SDS011;10365;52.578;8.138;2023-05-27T11:20:36;13.30;;;4.38;;
20411;SDS011;10365;52.578;8.138;2023-05-27T11:23:02;15.77;;;4.18;;
20411;SDS011;10365;52.578;8.138;2023-05-27T11:25:28;12.13;;;3.25;;
20411;SDS011;10365;52.578;8.138;2023-05-27T11:27:54;14.32;;;3.58;;
20411;SDS011;10365;52.578;8.138;2023-05-27T11:30:22;11.48;;;3.60;;
20411;SDS011;10365;52.578;8.138;2023-05-27T11:32:48;13.50;;;4.32;;
20411;SDS011;10365;52.578;8.138;2023-05-27T11:35:14;11.23;;;3.42;;
20411;SDS011;10365;52.578;8.138;2023-05-27T11:37:39;13.25;;;3.58;;
20411;SDS011;10365;52.578;8.138;2023-05-27T11:40:14;10.35;;;3.72;;
20411;SDS011;10365;52.578;8.138;2023-05-27T11:42:43;15.45;;;3.88;;
20411;SDS011;10365;52.578;8.138;2023-05-27T11:45:14;11.13;;;4.18;;
20411;SDS011;10365;52.578;8.138;2023-05-27T11:47:43;12.18;;;3.30;;
20411;SDS011;10365;52.578;8.138;2023-05-27T11:50:09;11.70;;;3.78;;
20411;SDS011;10365;52.578;8.138;2023-05-27T11:52:34;12.63;;;3.70;;
20411;SDS011;10365;52.578;8.138;2023-05-27T11:55:00;13.05;;;3.67;;
20411;SDS011;10365;52.578;8.138;2023-05-27T11:57:25;10.23;;;3.25;;
20411;SDS011;10365;52.578;8.138;2023-05-27T11:59:51;10.70;;;4.05;;
20411;SDS011;10365;52.578;8.138;2023-05-27T12:02:16;12.60;;;3.90;;
20411;SDS011;10365;52.578;8.138;2023-05-27T12:04:41;8.38;;;3.25;;
20411;SDS011;10365;52.578;8.138;2023-05-27T12:07:07;12.43;;;3.30;;
20411;SDS011;10365;52.578;8.138;2023-05-27T12:09:32;10.75;;;3.10;;
20411;SDS011;10365;52.578;8.138;2023-05-27T12:11:57;12.65;;;3.90;;
20411;SDS011;10365;52.578;8.138;2023-05-27T12:14:23;11.65;;;3.25;;
20411;SDS011;10365;52.578;8.138;2023-05-27T12:16:48;15.20;;;4.10;;
20411;SDS011;10365;52.578;8.138;2023-05-27T12:19:14;10.02;;;3.22;;
20411;SDS011;10365;52.578;8.138;2023-05-27T12:21:39;9.90;;;3.42;;
20411;SDS011;10365;52.578;8.138;2023-05-27T12:24:05;13.45;;;4.15;;
20411;SDS011;10365;52.578;8.138;2023-05-27T12:26:31;11.32;;;3.85;;
20411;SDS011;10365;52.578;8.138;2023-05-27T12:28:56;12.00;;;3.95;;
20411;SDS011;10365;52.578;8.138;2023-05-27T12:31:21;10.55;;;3.33;;
20411;SDS011;10365;52.578;8.138;2023-05-27T12:33:48;12.00;;;3.05;;
20411;SDS011;10365;52.578;8.138;2023-05-27T12:36:13;12.07;;;3.10;;
20411;SDS011;10365;52.578;8.138;2023-05-27T12:38:40;9.15;;;2.88;;
20411;SDS011;10365;52.578;8.138;2023-05-27T12:41:05;8.65;;;2.78;;
20411;SDS011;10365;52.578;8.138;2023-05-27T12:43:30;10.82;;;3.08;;
20411;SDS011;10365;52.578;8.138;2023-05-27T12:45:56;9.30;;;2.97;;
20411;SDS011;10365;52.578;8.138;2023-05-27T12:48:22;7.95;;;2.95;;
20411;SDS011;10365;52.578;8.138;2023-05-27T12:50:47;8.00;;;3.20;;
20411;SDS011;10365;52.578;8.138;2023-05-27T12:53:13;8.45;;;2.80;;
20411;SDS011;10365;52.578;8.138;2023-05-27T12:55:38;7.93;;;2.70;;
20411;SDS011;10365;52.578;8.138;2023-05-27T12:58:04;8.07;;;3.08;;
20411;SDS011;10365;52.578;8.138;2023-05-27T13:00:29;9.68;;;3.75;;
20411;SDS011;10365;52.578;8.138;2023-05-27T13:02:56;9.05;;;3.15;;
20411;SDS011;10365;52.578;8.138;2023-05-27T13:05:21;9.30;;;3.05;;
20411;SDS011;10365;52.578;8.138;2023-05-27T13:10:19;12.27;;;3.33;;
20411;SDS011;10365;52.578;8.138;2023-05-27T13:12:46;9.02;;;2.97;;
20411;SDS011;10365;52.578;8.138;2023-05-27T13:15:12;11.10;;;3.40;;
20411;SDS011;10365;52.578;8.138;2023-05-27T13:17:37;9.00;;;3.50;;
20411;SDS011;10365;52.578;8.138;2023-05-27T13:20:03;10.95;;;3.20;;
20411;SDS011;10365;52.578;8.138;2023-05-27T13:22:29;12.02;;;3.13;;
20411;SDS011;10365;52.578;8.138;2023-05-27T13:24:54;10.98;;;3.50;;
20411;SDS011;10365;52.578;8.138;2023-05-27T13:27:21;11.90;;;3.70;;
20411;SDS011;10365;52.578;8.138;2023-05-27T13:29:46;10.77;;;3.53;;
20411;SDS011;10365;52.578;8.138;2023-05-27T13:32:12;11.45;;;3.67;;
20411;SDS011;10365;52.578;8.138;2023-05-27T13:34:38;9.32;;;3.28;;
20411;SDS011;10365;52.578;8.138;2023-05-27T13:37:03;11.13;;;3.45;;
20411;SDS011;10365;52.578;8.138;2023-05-27T13:39:29;11.55;;;3.83;;
20411;SDS011;10365;52.578;8.138;2023-05-27T13:41:55;10.88;;;3.55;;
20411;SDS011;10365;52.578;8.138;2023-05-27T13:44:20;12.82;;;3.45;;
20411;SDS011;10365;52.578;8.138;2023-05-27T13:46:45;12.68;;;3.70;;
20411;SDS011;10365;52.578;8.138;2023-05-27T13:49:11;10.85;;;3.72;;
20411;SDS011;10365;52.578;8.138;2023-05-27T13:51:45;9.68;;;3.50;;
20411;SDS011;10365;52.578;8.138;2023-05-27T13:54:11;12.48;;;3.33;;
20411;SDS011;10365;52.578;8.138;2023-05-27T13:56:37;11.63;;;3.38;;
20411;SDS011;10365;52.578;8.138;2023-05-27T13:59:02;8.10;;;2.92;;
20411;SDS011;10365;52.578;8.138;2023-05-27T14:01:31;8.88;;;3.10;;
20411;SDS011;10365;52.578;8.138;2023-05-27T14:03:58;7.63;;;3.28;;
20411;SDS011;10365;52.578;8.138;2023-05-27T14:06:23;10.70;;;3.67;;
20411;SDS011;10365;52.578;8.138;2023-05-27T14:08:49;9.07;;;3.20;;
20411;SDS011;10365;52.578;8.138;2023-05-27T14:11:14;11.48;;;4.18;;
20411;SDS011;10365;52.578;8.138;2023-05-27T14:13:40;8.25;;;3.40;;
20411;SDS011;10365;52.578;8.138;2023-05-27T14:16:06;13.85;;;4.32;;
20411;SDS011;10365;52.578;8.138;2023-05-27T14:18:31;10.70;;;3.15;;
20411;SDS011;10365;52.578;8.138;2023-05-27T14:20:57;16.00;;;3.75;;
20411;SDS011;10365;52.578;8.138;2023-05-27T14:23:22;11.23;;;3.97;;
20411;SDS011;10365;52.578;8.138;2023-05-27T14:25:47;11.95;;;3.42;;
20411;SDS011;10365;52.578;8.138;2023-05-27T14:28:13;9.70;;;3.70;;
20411;SDS011;10365;52.578;8.138;2023-05-27T14:30:38;6.65;;;3.15;;
20411;SDS011;10365;52.578;8.138;2023-05-27T14:33:04;7.80;;;2.60;;
20411;SDS011;10365;52.578;8.138;2023-05-27T14:35:35;13.88;;;3.63;;
20411;SDS011;10365;52.578;8.138;2023-05-27T14:38:01;12.98;;;4.28;;
20411;SDS011;10365;52.578;8.138;2023-05-27T14:40:26;7.82;;;3.28;;
20411;SDS011;10365;52.578;8.138;2023-05-27T14:42:52;9.50;;;3.40;;
20411;SDS011;10365;52.578;8.138;2023-05-27T14:45:17;13.18;;;3.30;;
20411;SDS011;10365;52.578;8.138;2023-05-27T14:47:46;10.30;;;2.78;;